sensor_id;sensor_type;location;lat;lon;timestamp;P1;durP1;ratioP1;P2;durP2;ratioP2
14320;SDS011;7244;47.364;8.464;2022-09-24T00:15:02;6;;;4;;
14320;SDS011;7244;47.364;8.464;2022-09-24T00:31:03;9;;;4;;
14320;SDS011;7244;47.364;8.464;2022-09-24T00:47:02;6;;;4;;
14320;SDS011;7244;47.364;8.464;2022-09-24T01:02:01;7;;;4;;
14320;SDS011;7244;47.364;8.464;2022-09-24T01:18:08;8;;;5;;
14320;SDS011;7244;47.364;8.464;2022-09-24T01:34:02;7;;;5;;
14320;SDS011;7244;47.364;8.464;2022-09-24T01:50:02;8;;;5;;
14320;SDS011;7244;47.364;8.464;2022-09-24T02:05:03;7;;;4;;
14320;SDS011;7244;47.364;8.464;2022-09-24T02:21:03;6;;;4;;
14320;SDS011;7244;47.364;8.464;2022-09-24T02:37:03;6;;;4;;
14320;SDS011;7244;47.364;8.464;2022-09-24T02:38:01;6;;;4;;
14320;SDS011;7244;47.364;8.464;2022-09-24T02:39:02;6;;;4;;
14320;SDS011;7244;47.364;8.464;2022-09-24T02:40:02;6;;;4;;
14320;SDS011;7244;47.364;8.464;2022-09-24T02:41:02;6;;;4;;
14320;SDS011;7244;47.364;8.464;2022-09-24T02:42:01;6;;;4;;
14320;SDS011;7244;47.364;8.464;2022-09-24T02:43:01;6;;;4;;
14320;SDS011;7244;47.364;8.464;2022-09-24T02:44:01;6;;;4;;
14320;SDS011;7244;47.364;8.464;2022-09-24T02:45:02;6;;;4;;
14320;SDS011;7244;47.364;8.464;2022-09-24T02:46:02;6;;;4;;
14320;SDS011;7244;47.364;8.464;2022-09-24T02:47:01;6;;;4;;
14320;SDS011;7244;47.364;8.464;2022-09-24T02:48:01;6;;;4;;
14320;SDS011;7244;47.364;8.464;2022-09-24T02:49:01;6;;;4;;
14320;SDS011;7244;47.364;8.464;2022-09-24T02:50:02;6;;;4;;
14320;SDS011;7244;47.364;8.464;2022-09-24T02:51:02;5;;;4;;
14320;SDS011;7244;47.364;8.464;2022-09-24T03:08:02;4;;;3;;
14320;SDS011;7244;47.364;8.464;2022-09-24T03:24:02;3;;;2;;
14320;SDS011;7244;47.364;8.464;2022-09-24T03:40:02;3;;;3;;
14320;SDS011;7244;47.364;8.464;2022-09-24T03:56:02;7;;;4;;
14320;SDS011;7244;47.364;8.464;2022-09-24T04:11:02;6;;;4;;
14320;SDS011;7244;47.364;8.464;2022-09-24T04:27:02;8;;;5;;
14320;SDS011;7244;47.364;8.464;2022-09-24T04:43:02;7;;;4;;
14320;SDS011;7244;47.364;8.464;2022-09-24T04:58:02;6;;;4;;
14320;SDS011;7244;47.364;8.464;2022-09-24T05:14:01;8;;;4;;
14320;SDS011;7244;47.364;8.464;2022-09-24T05:30:01;4;;;4;;
14320;SDS011;7244;47.364;8.464;2022-09-24T05:46:01;5;;;4;;
14320;SDS011;7244;47.364;8.464;2022-09-24T06:01:01;6;;;4;;
14320;SDS011;7244;47.364;8.464;2022-09-24T06:17:01;5;;;3;;
14320;SDS011;7244;47.364;8.464;2022-09-24T06:33:02;8;;;4;;
14320;SDS011;7244;47.364;8.464;2022-09-24T06:48:02;6;;;5;;
14320;SDS011;7244;47.364;8.464;2022-09-24T07:04:01;9;;;6;;
14320;SDS011;7244;47.364;8.464;2022-09-24T07:20:02;7;;;5;;
14320;SDS011;7244;47.364;8.464;2022-09-24T07:36:02;8;;;6;;
14320;SDS011;7244;47.364;8.464;2022-09-24T07:51:02;8;;;5;;
14320;SDS011;7244;47.364;8.464;2022-09-24T08:07:02;14;;;6;;
14320;SDS011;7244;47.364;8.464;2022-09-24T08:23:02;7;;;5;;
14320;SDS011;7244;47.364;8.464;2022-09-24T08:39:02;7;;;5;;
14320;SDS011;7244;47.364;8.464;2022-09-24T08:54:02;8;;;5;;
14320;SDS011;7244;47.364;8.464;2022-09-24T09:10:03;10;;;4;;
14320;SDS011;7244;47.364;8.464;2022-09-24T09:26:01;5;;;3;;
14320;SDS011;7244;47.364;8.464;2022-09-24T09:41:05;5;;;3;;
14320;SDS011;7244;47.364;8.464;2022-09-24T09:57:01;4;;;4;;
14320;SDS011;7244;47.364;8.464;2022-09-24T10:13:06;3;;;3;;
14320;SDS011;7244;47.364;8.464;2022-09-24T10:29:01;4;;;3;;
14320;SDS011;7244;47.364;8.464;2022-09-24T10:44:03;3;;;3;;
14320;SDS011;7244;47.364;8.464;2022-09-24T11:00:06;5;;;3;;
14320;SDS011;7244;47.364;8.464;2022-09-24T11:16:08;3;;;2;;
14320;SDS011;7244;47.364;8.464;2022-09-24T11:53:04;3;;;2;;
14320;SDS011;7244;47.364;8.464;2022-09-24T12:09:21;4;;;2;;
14320;SDS011;7244;47.364;8.464;2022-09-24T12:23:13;4;;;2;;
14320;SDS011;7244;47.364;8.464;2022-09-24T12:34:18;3;;;2;;
14320;SDS011;7244;47.364;8.464;2022-09-24T12:50:03;6;;;2;;
14320;SDS011;7244;47.364;8.464;2022-09-24T13:06:02;6;;;2;;
14320;SDS011;7244;47.364;8.464;2022-09-24T13:07:02;6;;;2;;
14320;SDS011;7244;47.364;8.464;2022-09-24T13:08:02;6;;;2;;
14320;SDS011;7244;47.364;8.464;2022-09-24T13:09:03;6;;;2;;
14320;SDS011;7244;47.364;8.464;2022-09-24T13:15:03;6;;;2;;
14320;SDS011;7244;47.364;8.464;2022-09-24T13:16:02;6;;;2;;
14320;SDS011;7244;47.364;8.464;2022-09-24T13:17:03;6;;;2;;
14320;SDS011;7244;47.364;8.464;2022-09-24T13:18:04;6;;;2;;
14320;SDS011;7244;47.364;8.464;2022-09-24T13:19:01;6;;;2;;
14320;SDS011;7244;47.364;8.464;2022-09-24T13:20:03;3;;;2;;
14320;SDS011;7244;47.364;8.464;2022-09-24T13:37:03;3;;;2;;
14320;SDS011;7244;47.364;8.464;2022-09-24T13:53:03;3;;;2;;
14320;SDS011;7244;47.364;8.464;2022-09-24T14:09:02;3;;;1;;
14320;SDS011;7244;47.364;8.464;2022-09-24T14:25:02;2;;;2;;
14320;SDS011;7244;47.364;8.464;2022-09-24T14:40:02;3;;;2;;
14320;SDS011;7244;47.364;8.464;2022-09-24T14:56:06;2;;;1;;
14320;SDS011;7244;47.364;8.464;2022-09-24T15:12:05;1;;;1;;
14320;SDS011;7244;47.364;8.464;2022-09-24T15:27:02;3;;;1;;
14320;SDS011;7244;47.364;8.464;2022-09-24T15:43:01;2;;;1;;
14320;SDS011;7244;47.364;8.464;2022-09-24T15:59:04;3;;;2;;
14320;SDS011;7244;47.364;8.464;2022-09-24T16:15:01;2;;;2;;
14320;SDS011;7244;47.364;8.464;2022-09-24T16:30:02;4;;;2;;
14320;SDS011;7244;47.364;8.464;2022-09-24T16:46:02;3;;;3;;
14320;SDS011;7244;47.364;8.464;2022-09-24T17:02:02;5;;;3;;
14320;SDS011;7244;47.364;8.464;2022-09-24T17:18:01;3;;;2;;
14320;SDS011;7244;47.364;8.464;2022-09-24T17:33:01;5;;;3;;
14320;SDS011;7244;47.364;8.464;2022-09-24T17:49:01;6;;;4;;
14320;SDS011;7244;47.364;8.464;2022-09-24T18:05:01;5;;;2;;
14320;SDS011;7244;47.364;8.464;2022-09-24T18:20:02;2;;;1;;
14320;SDS011;7244;47.364;8.464;2022-09-24T18:36:01;3;;;2;;
14320;SDS011;7244;47.364;8.464;2022-09-24T18:52:01;2;;;1;;
14320;SDS011;7244;47.364;8.464;2022-09-24T19:08:01;1;;;1;;
14320;SDS011;7244;47.364;8.464;2022-09-24T19:23:02;2;;;1;;
14320;SDS011;7244;47.364;8.464;2022-09-24T19:39:01;1;;;1;;
14320;SDS011;7244;47.364;8.464;2022-09-24T19:55:01;1;;;1;;
14320;SDS011;7244;47.364;8.464;2022-09-24T20:11:02;2;;;1;;
14320;SDS011;7244;47.364;8.464;2022-09-24T20:26:01;3;;;1;;
14320;SDS011;7244;47.364;8.464;2022-09-24T20:42:01;1;;;1;;
14320;SDS011;7244;47.364;8.464;2022-09-24T20:58:02;2;;;1;;
14320;SDS011;7244;47.364;8.464;2022-09-24T21:13:02;2;;;1;;
14320;SDS011;7244;47.364;8.464;2022-09-24T21:29:02;1;;;1;;
14320;SDS011;7244;47.364;8.464;2022-09-24T21:45:02;2;;;1;;
14320;SDS011;7244;47.364;8.464;2022-09-24T22:01:05;1;;;1;;
14320;SDS011;7244;47.364;8.464;2022-09-24T22:16:01;2;;;0;;
14320;SDS011;7244;47.364;8.464;2022-09-24T22:32:02;1;;;0;;
14320;SDS011;7244;47.364;8.464;2022-09-24T22:48:02;1;;;0;;
14320;SDS011;7244;47.364;8.464;2022-09-24T23:04:02;1;;;1;;
14320;SDS011;7244;47.364;8.464;2022-09-24T23:19:03;2;;;1;;
14320;SDS011;7244;47.364;8.464;2022-09-24T23:35:01;2;;;1;;
14320;SDS011;7244;47.364;8.464;2022-09-24T23:51:01;1;;;1;;
